createdAt,value
2018-12-14T00:01:24.193Z,16.00
2018-12-14T00:03:51.669Z,15.78
2018-12-14T00:06:19.115Z,16.65
2018-12-14T00:08:46.586Z,17.30
2018-12-14T00:11:14.037Z,15.63
2018-12-14T00:13:41.504Z,16.23
2018-12-14T00:16:08.991Z,15.83
2018-12-14T00:18:36.466Z,13.15
2018-12-14T00:21:04.025Z,16.00
2018-12-14T00:23:31.490Z,15.55
2018-12-14T00:25:58.957Z,15.32
2018-12-14T00:28:26.409Z,15.38
2018-12-14T00:30:53.879Z,15.63
2018-12-14T00:33:21.394Z,15.95
2018-12-14T00:35:49.038Z,15.10
2018-12-14T00:38:16.510Z,15.43
2018-12-14T00:40:43.982Z,16.20
2018-12-14T00:43:11.442Z,16.42
2018-12-14T00:45:38.913Z,15.75
2018-12-14T00:48:06.361Z,13.48
2018-12-14T00:50:33.829Z,15.72
2018-12-14T00:53:01.284Z,16.42
2018-12-14T00:55:28.742Z,14.13
2018-12-14T00:57:56.219Z,15.20
2018-12-14T01:00:23.712Z,13.68
2018-12-14T01:02:51.174Z,15.20
2018-12-14T01:05:18.736Z,13.98
2018-12-14T01:07:46.188Z,14.43
2018-12-14T01:10:14.618Z,14.13
2018-12-14T01:12:42.104Z,15.60
2018-12-14T01:15:09.561Z,15.35
2018-12-14T01:17:37.048Z,16.10
2018-12-14T01:20:07.656Z,15.75
2018-12-14T01:22:35.285Z,15.40
2018-12-14T01:25:03.224Z,15.80
2018-12-14T01:27:30.701Z,13.20
2018-12-14T01:29:58.163Z,14.50
2018-12-14T01:32:25.613Z,15.45
2018-12-14T01:34:53.087Z,15.10
2018-12-14T01:37:20.574Z,14.20
2018-12-14T01:39:48.061Z,16.20
2018-12-14T01:42:15.525Z,14.95
2018-12-14T01:44:42.983Z,14.75
2018-12-14T01:47:10.455Z,16.37
2018-12-14T01:49:38.009Z,14.80
2018-12-14T01:52:05.611Z,15.93
2018-12-14T01:54:33.065Z,15.45
2018-12-14T01:57:00.523Z,16.35
2018-12-14T01:59:27.997Z,16.00
2018-12-14T02:01:55.462Z,15.45
2018-12-14T02:04:22.933Z,16.48
2018-12-14T02:06:50.398Z,14.78
2018-12-14T02:09:17.907Z,13.43
2018-12-14T02:11:45.358Z,16.65
2018-12-14T02:14:12.817Z,16.20
2018-12-14T02:16:41.109Z,15.05
2018-12-14T02:19:08.586Z,16.25
2018-12-14T02:21:36.105Z,15.45
2018-12-14T02:24:03.586Z,16.90
2018-12-14T02:26:31.067Z,14.87
2018-12-14T02:28:58.529Z,15.68
2018-12-14T02:31:26.007Z,14.45
2018-12-14T02:33:53.481Z,14.65
2018-12-14T02:36:21.004Z,15.50
2018-12-14T02:38:48.463Z,15.70
2018-12-14T02:41:15.953Z,15.08
2018-12-14T02:43:43.409Z,15.93
2018-12-14T02:46:10.890Z,13.78
2018-12-14T02:48:38.345Z,14.50
2018-12-14T02:51:05.819Z,15.08
2018-12-14T02:53:33.282Z,14.53
2018-12-14T02:56:01.415Z,14.73
2018-12-14T02:58:28.865Z,13.70
2018-12-14T03:00:56.349Z,15.30
2018-12-14T03:03:23.874Z,15.13
2018-12-14T03:05:51.318Z,15.25
2018-12-14T03:08:18.887Z,13.50
2018-12-14T03:10:46.359Z,13.95
2018-12-14T03:13:13.845Z,12.00
2018-12-14T03:15:41.301Z,14.33
2018-12-14T03:18:08.770Z,15.20
2018-12-14T03:20:36.225Z,14.05
2018-12-14T03:23:03.694Z,13.58
2018-12-14T03:25:31.148Z,13.60
2018-12-14T03:27:58.630Z,13.48
2018-12-14T03:30:26.106Z,14.95
2018-12-14T03:32:53.953Z,12.37
2018-12-14T03:35:21.418Z,14.50
2018-12-14T03:37:48.875Z,13.93
2018-12-14T03:40:16.324Z,15.03
2018-12-14T03:42:44.570Z,12.98
2018-12-14T03:45:12.127Z,14.25
2018-12-14T03:47:39.676Z,14.55
2018-12-14T03:50:07.296Z,14.87
2018-12-14T03:52:34.762Z,14.95
2018-12-14T03:55:02.281Z,12.95
2018-12-14T03:57:29.782Z,15.23
2018-12-14T03:59:57.243Z,14.55
2018-12-14T04:02:24.750Z,14.75
2018-12-14T04:04:52.265Z,15.95
2018-12-14T04:07:19.716Z,14.68
2018-12-14T04:09:47.175Z,14.83
2018-12-14T04:12:14.635Z,14.18
2018-12-14T04:14:42.179Z,14.75
2018-12-14T04:17:09.624Z,14.40
2018-12-14T04:19:37.104Z,13.68
2018-12-14T04:22:04.563Z,13.10
2018-12-14T04:24:32.059Z,13.30
2018-12-14T04:26:59.509Z,13.00
2018-12-14T04:29:26.994Z,13.62
2018-12-14T04:31:54.446Z,14.65
2018-12-14T04:34:21.917Z,14.03
2018-12-14T04:36:49.377Z,12.58
2018-12-14T04:39:16.918Z,14.03
2018-12-14T04:41:44.415Z,12.98
2018-12-14T04:44:11.863Z,13.50
2018-12-14T04:46:39.336Z,12.37
2018-12-14T04:49:06.798Z,13.15
2018-12-14T04:51:34.258Z,13.90
2018-12-14T04:54:01.713Z,14.63
2018-12-14T04:56:29.187Z,12.05
2018-12-14T04:58:56.642Z,12.63
2018-12-14T05:01:24.111Z,13.55
2018-12-14T05:03:51.586Z,12.75
2018-12-14T05:06:19.054Z,14.13
2018-12-14T05:08:46.529Z,11.78
2018-12-14T05:11:13.991Z,13.80
2018-12-14T05:13:41.443Z,12.15
2018-12-14T05:16:08.903Z,12.40
2018-12-14T05:18:36.400Z,12.98
2018-12-14T05:21:03.877Z,12.95
2018-12-14T05:23:31.321Z,12.13
2018-12-14T05:25:58.797Z,12.25
2018-12-14T05:28:26.320Z,11.78
2018-12-14T05:30:53.773Z,11.57
2018-12-14T05:33:21.234Z,12.00
2018-12-14T05:35:48.706Z,13.53
2018-12-14T05:38:16.194Z,12.80
2018-12-14T05:40:43.660Z,13.68
2018-12-14T05:43:11.161Z,13.90
2018-12-14T05:45:38.627Z,13.22
2018-12-14T05:48:06.103Z,12.75
2018-12-14T05:50:33.558Z,13.93
2018-12-14T05:53:01.029Z,13.60
2018-12-14T05:55:28.484Z,12.55
2018-12-14T05:57:55.964Z,15.13
2018-12-14T06:00:23.426Z,12.93
2018-12-14T06:02:50.898Z,13.90
2018-12-14T06:05:18.522Z,14.40
2018-12-14T06:07:46.006Z,14.75
2018-12-14T06:10:13.543Z,13.50
2018-12-14T06:12:41.031Z,13.95
2018-12-14T06:15:08.512Z,15.00
2018-12-14T06:17:35.987Z,14.28
2018-12-14T06:20:03.909Z,13.83
2018-12-14T06:22:31.370Z,14.50
2018-12-14T06:24:58.841Z,15.00
2018-12-14T06:27:26.336Z,14.38
2018-12-14T06:29:53.818Z,14.55
2018-12-14T06:32:21.300Z,15.78
2018-12-14T06:34:48.752Z,16.20
2018-12-14T06:37:16.479Z,13.88
2018-12-14T06:39:43.948Z,14.87
2018-12-14T06:42:11.879Z,15.28
2018-12-14T06:44:39.368Z,14.47
2018-12-14T06:47:06.830Z,14.13
2018-12-14T06:49:34.400Z,14.87
2018-12-14T06:52:01.870Z,13.43
2018-12-14T06:54:29.339Z,14.95
2018-12-14T06:56:56.822Z,13.60
2018-12-14T06:59:24.296Z,14.00
2018-12-14T07:01:52.503Z,13.93
2018-12-14T07:04:19.965Z,15.95
2018-12-14T07:06:47.413Z,15.78
2018-12-14T07:09:14.879Z,15.40
2018-12-14T07:11:42.353Z,14.95
2018-12-14T07:14:09.838Z,15.03
2018-12-14T07:16:37.379Z,15.38
2018-12-14T07:19:04.833Z,13.80
2018-12-14T07:21:32.322Z,14.15
2018-12-14T07:23:59.785Z,13.83
2018-12-14T07:26:27.333Z,15.28
2018-12-14T07:28:55.172Z,14.63
2018-12-14T07:31:23.124Z,15.18
2018-12-14T07:33:50.581Z,15.83
2018-12-14T07:36:18.058Z,16.55
2018-12-14T07:38:48.312Z,14.98
2018-12-14T07:41:15.029Z,15.65
2018-12-14T07:43:42.474Z,15.10
2018-12-14T07:46:09.960Z,13.43
2018-12-14T07:48:37.430Z,15.20
2018-12-14T07:51:04.966Z,13.78
2018-12-14T07:53:32.445Z,15.65
2018-12-14T07:55:59.998Z,15.45
2018-12-14T07:58:27.490Z,12.85
2018-12-14T08:00:54.942Z,12.80
2018-12-14T08:03:22.425Z,15.32
2018-12-14T08:05:49.903Z,14.53
2018-12-14T08:08:17.401Z,13.50
2018-12-14T08:10:45.831Z,13.72
2018-12-14T08:13:13.299Z,14.63
2018-12-14T08:15:40.749Z,13.40
2018-12-14T08:18:08.337Z,13.85
2018-12-14T08:20:35.827Z,14.80
2018-12-14T08:23:03.303Z,13.72
2018-12-14T08:25:30.750Z,13.28
2018-12-14T08:27:58.233Z,11.68
2018-12-14T08:30:25.691Z,12.50
2018-12-14T08:32:53.146Z,11.43
2018-12-14T08:35:20.610Z,12.10
2018-12-14T08:37:48.182Z,10.32
2018-12-14T08:40:16.198Z,12.47
2018-12-14T08:42:43.673Z,11.57
2018-12-14T08:45:11.164Z,12.47
2018-12-14T08:47:38.619Z,12.88
2018-12-14T08:50:06.178Z,12.65
2018-12-14T08:52:34.354Z,10.55
2018-12-14T08:55:01.847Z,12.50
2018-12-14T08:57:29.304Z,11.90
2018-12-14T08:59:56.779Z,10.60
2018-12-14T09:02:24.250Z,11.55
2018-12-14T09:04:51.718Z,11.93
2018-12-14T09:07:24.547Z,12.40
2018-12-14T09:09:48.917Z,11.65
2018-12-14T09:12:16.370Z,12.85
2018-12-14T09:14:43.862Z,11.55
2018-12-14T09:17:11.306Z,11.50
2018-12-14T09:19:38.826Z,12.28
2018-12-14T09:22:06.298Z,12.07
2018-12-14T09:24:33.755Z,11.22
2018-12-14T09:27:01.232Z,10.90
2018-12-14T09:29:28.707Z,12.45
2018-12-14T09:31:56.170Z,12.30
2018-12-14T09:34:23.653Z,11.33
2018-12-14T09:36:51.249Z,11.65
2018-12-14T09:39:18.690Z,12.93
2018-12-14T09:41:46.725Z,13.00
2018-12-14T09:44:14.224Z,13.22
2018-12-14T09:46:41.707Z,13.08
2018-12-14T09:49:09.173Z,11.75
2018-12-14T09:51:36.669Z,12.50
2018-12-14T09:54:04.125Z,13.22
2018-12-14T09:56:31.585Z,13.03
2018-12-14T09:58:59.167Z,13.53
2018-12-14T10:01:26.614Z,11.43
2018-12-14T10:03:54.095Z,12.55
2018-12-14T10:06:21.649Z,12.90
2018-12-14T10:08:49.121Z,12.33
2018-12-14T10:11:16.838Z,12.13
2018-12-14T10:13:44.319Z,12.13
2018-12-14T10:16:12.353Z,11.57
2018-12-14T10:18:40.302Z,11.25
2018-12-14T10:21:07.758Z,11.38
2018-12-14T10:23:35.242Z,11.18
2018-12-14T10:26:02.714Z,10.95
2018-12-14T10:28:30.289Z,11.00
2018-12-14T10:30:57.741Z,11.20
2018-12-14T10:33:25.235Z,13.65
2018-12-14T10:35:52.788Z,13.15
2018-12-14T10:38:20.555Z,11.18
2018-12-14T10:40:48.030Z,13.88
2018-12-14T10:43:15.570Z,12.65
2018-12-14T10:45:43.308Z,12.85
2018-12-14T10:48:10.782Z,14.70
2018-12-14T10:50:39.643Z,13.00
2018-12-14T10:53:09.505Z,14.03
2018-12-14T10:55:36.990Z,14.45
2018-12-14T10:58:04.455Z,14.50
2018-12-14T11:00:37.722Z,12.93
2018-12-14T11:03:05.165Z,12.47
2018-12-14T11:05:32.635Z,12.60
2018-12-14T11:08:00.105Z,11.57
2018-12-14T11:10:27.578Z,13.48
2018-12-14T11:12:55.052Z,12.50
2018-12-14T11:15:22.524Z,13.22
2018-12-14T11:17:50.060Z,12.93
2018-12-14T11:20:18.508Z,12.20
2018-12-14T11:22:45.970Z,12.78
2018-12-14T11:25:13.537Z,11.45
2018-12-14T11:27:41.786Z,13.40
2018-12-14T11:30:09.483Z,13.32
2018-12-14T11:32:37.065Z,12.45
2018-12-14T11:35:04.612Z,13.15
2018-12-14T11:37:32.091Z,14.05
2018-12-14T11:40:00.233Z,13.13
2018-12-14T11:42:27.693Z,10.32
2018-12-14T11:44:55.183Z,14.07
2018-12-14T11:47:22.658Z,12.70
2018-12-14T11:49:50.128Z,13.05
2018-12-14T11:52:17.608Z,12.75
2018-12-14T11:54:45.075Z,13.00
2018-12-14T11:57:12.557Z,12.82
2018-12-14T11:59:40.013Z,14.20
2018-12-14T12:02:08.337Z,13.10
2018-12-14T12:04:35.834Z,13.80
2018-12-14T12:07:03.297Z,14.18
2018-12-14T12:09:30.790Z,12.13
2018-12-14T12:11:58.257Z,12.88
2018-12-14T12:14:27.034Z,14.25
2018-12-14T12:16:54.819Z,13.30
2018-12-14T12:19:22.294Z,14.50
2018-12-14T12:21:49.913Z,12.40
2018-12-14T12:24:17.421Z,12.80
2018-12-14T12:26:44.873Z,13.78
2018-12-14T12:29:12.350Z,13.68
2018-12-14T12:31:39.805Z,13.60
2018-12-14T12:34:07.269Z,13.95
2018-12-14T12:36:34.737Z,13.78
2018-12-14T12:39:02.232Z,12.60
2018-12-14T12:41:29.705Z,14.35
2018-12-14T12:43:57.295Z,13.20
2018-12-14T12:46:24.770Z,12.68
2018-12-14T12:48:52.532Z,12.13
2018-12-14T12:51:20.238Z,14.38
2018-12-14T12:53:47.690Z,15.00
2018-12-14T12:56:15.463Z,14.90
2018-12-14T12:58:42.934Z,13.68
2018-12-14T13:01:11.414Z,12.43
2018-12-14T13:03:38.910Z,12.40
2018-12-14T13:06:06.361Z,12.25
2018-12-14T13:08:33.917Z,13.98
2018-12-14T13:11:01.377Z,14.20
2018-12-14T13:13:28.836Z,13.45
2018-12-14T13:15:56.325Z,13.75
2018-12-14T13:18:23.770Z,13.60
2018-12-14T13:20:51.253Z,13.50
2018-12-14T13:23:18.718Z,14.58
2018-12-14T13:25:46.199Z,14.80
2018-12-14T13:28:14.179Z,13.75
2018-12-14T13:30:41.697Z,15.15
2018-12-14T13:33:09.338Z,15.00
2018-12-14T13:35:36.957Z,14.25
2018-12-14T13:38:04.435Z,15.40
2018-12-14T13:40:31.992Z,14.65
2018-12-14T13:42:59.578Z,12.78
2018-12-14T13:45:27.046Z,14.95
2018-12-14T13:47:54.526Z,14.73
2018-12-14T13:50:21.993Z,13.48
2018-12-14T13:52:49.478Z,12.73
2018-12-14T13:55:17.831Z,15.68
2018-12-14T13:57:45.649Z,13.75
2018-12-14T14:00:13.265Z,14.58
2018-12-14T14:02:40.737Z,12.35
2018-12-14T14:05:08.338Z,11.95
2018-12-14T14:07:35.842Z,13.70
2018-12-14T14:10:04.911Z,13.10
2018-12-14T14:12:32.393Z,12.55
2018-12-14T14:14:59.960Z,12.45
2018-12-14T14:17:27.526Z,13.85
2018-12-14T14:19:55.167Z,12.30
2018-12-14T14:22:22.936Z,12.50
2018-12-14T14:24:50.378Z,12.20
2018-12-14T14:27:17.834Z,11.80
2018-12-14T14:29:46.177Z,13.32
2018-12-14T14:32:13.634Z,14.33
2018-12-14T14:34:41.126Z,12.33
2018-12-14T14:37:08.582Z,14.15
2018-12-14T14:39:36.061Z,13.05
2018-12-14T14:42:03.519Z,15.60
2018-12-14T14:44:31.343Z,17.92
2018-12-14T14:46:59.075Z,17.20
2018-12-14T14:49:26.550Z,14.20
2018-12-14T14:51:54.389Z,12.93
2018-12-14T14:54:22.694Z,13.88
2018-12-14T14:56:50.129Z,14.30
2018-12-14T14:59:17.605Z,12.98
2018-12-14T15:01:45.074Z,13.88
2018-12-14T15:04:12.552Z,13.53
2018-12-14T15:06:40.006Z,13.53
2018-12-14T15:09:08.432Z,12.25
2018-12-14T15:11:35.927Z,12.55
2018-12-14T15:14:03.386Z,14.45
2018-12-14T15:16:30.850Z,12.07
2018-12-14T15:18:58.313Z,12.68
2018-12-14T15:21:25.788Z,12.60
2018-12-14T15:23:53.334Z,12.10
2018-12-14T15:26:20.795Z,14.15
2018-12-14T15:28:48.263Z,13.65
2018-12-14T15:31:15.745Z,12.40
2018-12-14T15:33:43.290Z,18.40
2018-12-14T15:36:10.777Z,12.35
2018-12-14T15:38:41.274Z,11.85
2018-12-14T15:41:08.732Z,11.83
2018-12-14T15:43:36.228Z,11.97
2018-12-14T15:46:03.713Z,12.73
2018-12-14T15:48:31.174Z,10.45
2018-12-14T15:50:58.646Z,12.28
2018-12-14T15:53:26.121Z,12.33
2018-12-14T15:55:53.857Z,11.85
2018-12-14T15:58:21.538Z,12.33
2018-12-14T16:00:48.973Z,11.78
2018-12-14T16:03:16.918Z,12.50
2018-12-14T16:05:45.209Z,11.35
2018-12-14T16:08:12.690Z,12.07
2018-12-14T16:10:43.068Z,12.45
2018-12-14T16:13:10.542Z,13.05
2018-12-14T16:15:38.010Z,13.05
2018-12-14T16:18:05.487Z,13.35
2018-12-14T16:20:32.956Z,13.95
2018-12-14T16:23:00.434Z,11.65
2018-12-14T16:25:27.900Z,14.65
2018-12-14T16:27:55.471Z,14.07
2018-12-14T16:30:22.949Z,12.82
2018-12-14T16:32:50.614Z,14.47
2018-12-14T16:35:18.075Z,12.18
2018-12-14T16:37:45.540Z,12.98
2018-12-14T16:40:13.101Z,11.57
2018-12-14T16:42:40.571Z,12.75
2018-12-14T16:45:08.257Z,12.80
2018-12-14T16:47:35.816Z,11.78
2018-12-14T16:50:04.210Z,12.28
2018-12-14T16:52:31.878Z,11.68
2018-12-14T16:54:59.403Z,11.08
2018-12-14T16:57:26.872Z,12.28
2018-12-14T16:59:54.414Z,13.50
2018-12-14T17:02:21.878Z,13.05
2018-12-14T17:04:49.358Z,13.28
2018-12-14T17:07:17.712Z,12.18
2018-12-14T17:09:45.204Z,12.82
2018-12-14T17:12:12.689Z,14.28
2018-12-14T17:14:40.160Z,12.70
2018-12-14T17:17:07.643Z,15.40
2018-12-14T17:19:35.117Z,12.93
2018-12-14T17:22:02.618Z,11.88
2018-12-14T17:24:30.555Z,12.70
2018-12-14T17:26:58.025Z,12.18
2018-12-14T17:29:25.578Z,12.37
2018-12-14T17:31:53.071Z,12.07
2018-12-14T17:34:20.515Z,12.50
2018-12-14T17:36:48.001Z,12.30
2018-12-14T17:39:15.729Z,12.37
2018-12-14T17:41:43.258Z,12.47
2018-12-14T17:44:10.720Z,14.63
2018-12-14T17:46:38.466Z,13.80
2018-12-14T17:49:05.918Z,11.93
2018-12-14T17:51:33.770Z,11.53
2018-12-14T17:54:01.216Z,11.93
2018-12-14T17:56:28.696Z,11.18
2018-12-14T17:58:56.153Z,12.58
2018-12-14T18:01:23.622Z,12.10
2018-12-14T18:03:51.086Z,12.82
2018-12-14T18:06:19.278Z,12.50
2018-12-14T18:08:46.835Z,11.90
2018-12-14T18:11:14.290Z,12.70
2018-12-14T18:13:41.765Z,14.07
2018-12-14T18:16:09.400Z,11.22
2018-12-14T18:18:36.868Z,10.45
2018-12-14T18:21:04.331Z,12.45
2018-12-14T18:23:31.893Z,10.48
2018-12-14T18:25:59.345Z,11.95
2018-12-14T18:28:26.837Z,11.60
2018-12-14T18:30:54.308Z,13.88
2018-12-14T18:33:21.788Z,14.93
2018-12-14T18:35:49.275Z,12.82
2018-12-14T18:38:16.759Z,11.43
2018-12-14T18:40:44.239Z,11.20
2018-12-14T18:43:11.820Z,10.80
2018-12-14T18:45:39.387Z,11.65
2018-12-14T18:48:06.844Z,10.90
2018-12-14T18:50:34.326Z,11.30
2018-12-14T18:53:01.784Z,12.33
2018-12-14T18:55:29.258Z,11.90
2018-12-14T18:57:56.730Z,12.03
2018-12-14T19:00:24.223Z,11.15
2018-12-14T19:02:51.685Z,11.68
2018-12-14T19:05:19.181Z,11.33
2018-12-14T19:07:46.650Z,12.55
2018-12-14T19:10:14.122Z,10.35
2018-12-14T19:12:42.342Z,11.15
2018-12-14T19:15:09.811Z,11.63
